createdAt,value
2022-10-10T00:00:06.178Z,152320.84
2022-10-10T00:02:33.634Z,152336.25
2022-10-10T00:05:01.128Z,152347.88
2022-10-10T00:07:28.618Z,152360.72
2022-10-10T00:09:56.056Z,152306.69
2022-10-10T00:12:24.966Z,152322.09
2022-10-10T00:14:52.471Z,152346.56
2022-10-10T00:17:19.942Z,152347.88
2022-10-10T00:19:47.394Z,152344.00
2022-10-10T00:22:14.830Z,152358.16
2022-10-10T00:24:42.316Z,152325.97
2022-10-10T00:27:09.822Z,152340.13
2022-10-10T00:29:38.626Z,152373.59
2022-10-10T00:32:06.079Z,152380.00
2022-10-10T00:34:33.545Z,152371.00
2022-10-10T00:37:01.003Z,152358.16
2022-10-10T00:39:28.548Z,152363.25
2022-10-10T00:41:56.166Z,152327.25
2022-10-10T00:44:23.775Z,152377.41
2022-10-10T00:46:52.825Z,152345.28
2022-10-10T00:49:23.623Z,152363.25
2022-10-10T00:51:56.674Z,152380.00
2022-10-10T00:54:25.874Z,152376.13
2022-10-10T00:56:56.240Z,152342.69
2022-10-10T00:59:24.567Z,152352.97
2022-10-10T01:01:53.407Z,152340.13
2022-10-10T01:04:32.719Z,152337.53
2022-10-10T01:07:01.037Z,152351.69
2022-10-10T01:09:29.915Z,152347.88
2022-10-10T01:12:05.459Z,152329.84
2022-10-10T01:14:42.178Z,152302.81
2022-10-10T01:17:19.654Z,152243.63
2022-10-10T01:20:16.866Z,152289.94
2022-10-10T01:23:03.498Z,152291.25
2022-10-10T01:25:34.060Z,152329.84
2022-10-10T01:28:04.133Z,152300.22
2022-10-10T01:30:35.553Z,152309.22
2022-10-10T01:33:09.426Z,152282.19
2022-10-10T01:35:49.252Z,152247.50
2022-10-10T01:38:26.411Z,152257.78
2022-10-10T01:41:01.572Z,152229.47
2022-10-10T01:43:30.939Z,152257.78
2022-10-10T01:45:59.795Z,152241.03
2022-10-10T01:48:31.606Z,152278.38
2022-10-10T01:51:20.560Z,152226.94
2022-10-10T01:53:58.411Z,152224.34
2022-10-10T01:56:36.272Z,152270.63
2022-10-10T01:59:31.095Z,152288.66
2022-10-10T02:02:07.240Z,152260.34
2022-10-10T02:04:41.702Z,152248.78
2022-10-10T02:07:15.775Z,152247.50
2022-10-10T02:09:45.200Z,152268.06
2022-10-10T02:12:13.954Z,152241.03
2022-10-10T02:14:44.704Z,152296.34
2022-10-10T02:17:16.411Z,152286.09
2022-10-10T02:19:49.505Z,152275.78
2022-10-10T02:22:17.939Z,152275.78
2022-10-10T02:24:45.502Z,152275.78
2022-10-10T02:27:24.736Z,152279.69
2022-10-10T02:29:54.889Z,152282.19
2022-10-10T02:32:29.811Z,152224.34
2022-10-10T02:35:01.935Z,152259.06
2022-10-10T02:37:31.599Z,152275.78
2022-10-10T02:40:02.792Z,152293.81
2022-10-10T02:42:31.082Z,152273.22
2022-10-10T02:44:59.167Z,152309.22
2022-10-10T02:47:28.317Z,152325.97
2022-10-10T02:49:55.792Z,152350.41
2022-10-10T02:52:23.572Z,152350.41
2022-10-10T02:54:51.098Z,152345.28
2022-10-10T02:57:18.531Z,152350.41
2022-10-10T02:59:45.988Z,152363.25
2022-10-10T03:02:13.499Z,152355.56
2022-10-10T03:04:43.313Z,152361.97
2022-10-10T03:07:10.797Z,152369.72
2022-10-10T03:09:38.397Z,152383.88
2022-10-10T03:12:06.225Z,152376.13
2022-10-10T03:14:33.931Z,152381.31
2022-10-10T03:17:01.424Z,152373.59
2022-10-10T03:19:28.889Z,152368.44
2022-10-10T03:21:57.663Z,152380.00
2022-10-10T03:24:25.136Z,152383.88
2022-10-10T03:26:52.579Z,152373.59
2022-10-10T03:29:20.104Z,152396.75
2022-10-10T03:31:47.744Z,152391.56
2022-10-10T03:34:15.253Z,152391.56
2022-10-10T03:36:42.772Z,152371.00
2022-10-10T03:39:11.793Z,152373.59
2022-10-10T03:41:39.263Z,152395.47
2022-10-10T03:44:06.732Z,152392.88
2022-10-10T03:46:34.177Z,152385.16
2022-10-10T03:49:01.638Z,152383.88
2022-10-10T03:51:29.110Z,152363.25
2022-10-10T03:53:56.631Z,152350.41
2022-10-10T03:56:25.445Z,152376.13
2022-10-10T03:58:52.927Z,152355.56
2022-10-10T04:01:20.507Z,152352.97
2022-10-10T04:03:51.994Z,152355.56
2022-10-10T04:06:20.009Z,152351.69
2022-10-10T04:08:47.504Z,152360.72
2022-10-10T04:11:15.163Z,152358.16
2022-10-10T04:13:44.023Z,152347.88
2022-10-10T04:16:11.533Z,152369.72
2022-10-10T04:18:39.000Z,152336.25
2022-10-10T04:21:07.376Z,152327.25
2022-10-10T04:23:34.971Z,152327.25
2022-10-10T04:26:02.531Z,152344.00
2022-10-10T04:28:30.038Z,152329.84
2022-10-10T04:30:58.878Z,152345.28
2022-10-10T04:33:26.529Z,152356.84
2022-10-10T04:35:53.983Z,152364.56
2022-10-10T04:38:22.658Z,152351.69
2022-10-10T04:40:50.831Z,152378.72
2022-10-10T04:43:19.187Z,152371.00
2022-10-10T04:45:47.042Z,152356.84
2022-10-10T04:48:15.916Z,152372.31
2022-10-10T04:50:43.607Z,152376.13
2022-10-10T04:53:11.571Z,152369.72
2022-10-10T04:55:39.025Z,152391.56
2022-10-10T04:58:06.817Z,152360.72
2022-10-10T05:00:34.296Z,152381.31
2022-10-10T05:03:01.831Z,152385.16
2022-10-10T05:05:30.639Z,152389.00
2022-10-10T05:07:58.190Z,152369.72
2022-10-10T05:10:26.160Z,152363.25
2022-10-10T05:12:54.226Z,152376.13
2022-10-10T05:15:22.677Z,152345.28
2022-10-10T05:17:50.165Z,152360.72
2022-10-10T05:20:17.694Z,152322.09
2022-10-10T05:22:47.048Z,152354.28
2022-10-10T05:25:14.581Z,152358.16
2022-10-10T05:27:42.202Z,152360.72
2022-10-10T05:30:10.329Z,152345.28
2022-10-10T05:32:37.809Z,152376.13
2022-10-10T05:35:06.162Z,152368.44
2022-10-10T05:37:33.771Z,152368.44
2022-10-10T05:40:02.637Z,152345.28
2022-10-10T05:42:30.640Z,152365.84
2022-10-10T05:44:58.207Z,152360.72
2022-10-10T05:47:28.002Z,152378.72
2022-10-10T05:49:55.725Z,152403.16
2022-10-10T05:52:23.210Z,152389.00
2022-10-10T05:54:50.675Z,152391.56
2022-10-10T05:57:19.474Z,152385.16
2022-10-10T05:59:47.236Z,152392.88
2022-10-10T06:02:15.393Z,152383.88
2022-10-10T06:04:43.065Z,152396.75
2022-10-10T06:07:10.503Z,152416.03
2022-10-10T06:09:38.168Z,152431.47
2022-10-10T06:12:05.661Z,152435.34
2022-10-10T06:14:34.625Z,152436.63
2022-10-10T06:17:02.392Z,152466.25
2022-10-10T06:19:29.978Z,152522.97
2022-10-10T06:21:57.412Z,152547.41
2022-10-10T06:24:24.875Z,152566.69
2022-10-10T06:26:52.339Z,152574.44
2022-10-10T06:29:19.822Z,152622.06
2022-10-10T06:31:48.606Z,152636.25
2022-10-10T06:34:16.036Z,152662.00
2022-10-10T06:36:43.496Z,152672.28
2022-10-10T06:39:10.934Z,152691.63
2022-10-10T06:41:38.387Z,152709.69
2022-10-10T06:44:05.852Z,152722.56
2022-10-10T06:46:34.372Z,152734.16
2022-10-10T06:49:03.545Z,152735.44
2022-10-10T06:51:31.541Z,152753.44
2022-10-10T06:53:59.831Z,152759.91
2022-10-10T06:56:28.028Z,152788.25
2022-10-10T06:58:56.179Z,152785.69
2022-10-10T07:01:25.772Z,152806.28
2022-10-10T07:03:53.502Z,152814.03
2022-10-10T07:06:22.428Z,152844.97
2022-10-10T07:08:49.892Z,152853.97
2022-10-10T07:11:17.382Z,152852.69
2022-10-10T07:13:44.800Z,152861.69
2022-10-10T07:16:12.382Z,152878.47
2022-10-10T07:18:39.841Z,152886.22
2022-10-10T07:21:07.718Z,152912.03
2022-10-10T07:23:36.906Z,152924.94
2022-10-10T07:26:07.045Z,152924.94
2022-10-10T07:28:35.205Z,152945.53
2022-10-10T07:31:04.945Z,152950.72
2022-10-10T07:33:33.346Z,152985.50
2022-10-10T07:36:02.704Z,153015.16
2022-10-10T07:38:30.209Z,153030.63
2022-10-10T07:40:58.990Z,153070.63
2022-10-10T07:43:26.430Z,153071.91
2022-10-10T07:45:53.936Z,153091.22
2022-10-10T07:48:21.587Z,153115.72
2022-10-10T07:50:49.171Z,153127.38
2022-10-10T07:53:16.635Z,153147.97
2022-10-10T07:55:44.762Z,153193.16
2022-10-10T07:58:14.048Z,153184.09
2022-10-10T08:00:42.752Z,153200.88
2022-10-10T08:03:12.216Z,153230.56
2022-10-10T08:05:41.056Z,153226.66
2022-10-10T08:08:08.543Z,153257.69
2022-10-10T08:10:36.238Z,153286.09
2022-10-10T08:13:03.744Z,153291.22
2022-10-10T08:15:34.033Z,153304.19
2022-10-10T08:18:01.726Z,153345.44
2022-10-10T08:20:29.188Z,153351.91
2022-10-10T08:22:56.837Z,153364.81
2022-10-10T08:25:24.273Z,153335.13
2022-10-10T08:27:51.770Z,153359.63
2022-10-10T08:30:19.568Z,153381.59
2022-10-10T08:32:48.941Z,153402.22
2022-10-10T08:35:16.979Z,153417.72
2022-10-10T08:37:44.461Z,153448.72
2022-10-10T08:40:16.785Z,153422.91
2022-10-10T08:42:52.502Z,153442.25
2022-10-10T08:45:23.715Z,153488.75
2022-10-10T08:47:57.091Z,153566.22
2022-10-10T08:50:28.671Z,153585.66
2022-10-10T08:53:00.638Z,153588.19
2022-10-10T08:55:33.558Z,153614.09
2022-10-10T08:58:07.394Z,153606.31
2022-10-10T09:00:40.943Z,153593.38
2022-10-10T09:03:21.142Z,153583.06
2022-10-10T09:06:07.211Z,153616.63
2022-10-10T09:08:44.511Z,153611.50
2022-10-10T09:11:26.691Z,153632.13
2022-10-10T09:14:03.808Z,153634.72
2022-10-10T09:16:41.022Z,153663.16
2022-10-10T09:19:24.568Z,153692.88
2022-10-10T09:21:56.610Z,153732.94
2022-10-10T09:24:27.555Z,153775.56
2022-10-10T09:26:59.800Z,153802.72
2022-10-10T09:29:33.077Z,153841.47
2022-10-10T09:32:09.946Z,153875.13
2022-10-10T09:34:42.380Z,153959.16
2022-10-10T09:37:24.285Z,154014.78
2022-10-10T09:40:09.915Z,154119.53
2022-10-10T09:42:39.706Z,154159.66
2022-10-10T09:45:18.075Z,154201.06
2022-10-10T09:47:45.746Z,154237.28
2022-10-10T09:50:16.984Z,154139.00
2022-10-10T09:52:46.031Z,154175.19
2022-10-10T09:55:24.534Z,154164.88
2022-10-10T09:57:54.179Z,154139.00
2022-10-10T10:00:33.762Z,154164.88
2022-10-10T10:03:07.452Z,154247.69
2022-10-10T10:05:36.486Z,154198.47
2022-10-10T10:08:04.054Z,154215.31
2022-10-10T10:10:36.375Z,154243.78
2022-10-10T10:13:03.919Z,154212.72
2022-10-10T10:15:33.117Z,154216.63
2022-10-10T10:18:13.965Z,154268.38
2022-10-10T10:20:45.084Z,154224.34
2022-10-10T10:23:24.782Z,154214.00
2022-10-10T10:26:00.219Z,154162.28
2022-10-10T10:28:28.696Z,154111.78
2022-10-10T10:30:58.251Z,154131.16
2022-10-10T10:33:38.841Z,154070.38
2022-10-10T10:36:16.201Z,154131.16
2022-10-10T10:38:49.388Z,154094.94
2022-10-10T10:41:28.197Z,154087.22
2022-10-10T10:44:09.544Z,154180.41
2022-10-10T10:46:51.031Z,154144.13
2022-10-10T10:49:25.635Z,154097.53
2022-10-10T10:52:22.184Z,154144.13
2022-10-10T10:55:05.173Z,154159.66
2022-10-10T10:58:04.758Z,154168.72
2022-10-10T11:01:23.703Z,154163.56
2022-10-10T11:05:18.962Z,154132.47
2022-10-10T11:07:16.787Z,154168.72
2022-10-10T11:09:50.041Z,154135.06
2022-10-10T11:12:24.842Z,154142.84
2022-10-10T11:14:55.384Z,154107.88
2022-10-10T11:17:27.501Z,154078.13
2022-10-10T11:20:03.209Z,154131.16
2022-10-10T11:22:36.411Z,154131.16
2022-10-10T11:25:14.531Z,154114.38
2022-10-10T11:27:46.852Z,154167.47
2022-10-10T11:30:17.841Z,154162.28
2022-10-10T11:32:54.330Z,154123.41
2022-10-10T11:35:35.818Z,154144.13
2022-10-10T11:38:12.671Z,154182.94
2022-10-10T11:40:52.516Z,154182.94
2022-10-10T11:43:28.272Z,154194.63
2022-10-10T11:46:05.513Z,154199.78
2022-10-10T11:48:42.910Z,154223.06
2022-10-10T11:51:23.804Z,154265.75
2022-10-10T11:53:54.671Z,154255.41
2022-10-10T11:56:29.650Z,154214.00
2022-10-10T11:59:01.391Z,154216.63
2022-10-10T12:01:32.516Z,154270.97
2022-10-10T12:03:59.971Z,154261.91
2022-10-10T12:06:33.348Z,154247.69
2022-10-10T12:09:04.849Z,154239.88
2022-10-10T12:11:41.610Z,154239.88
2022-10-10T12:14:14.672Z,154237.28
2022-10-10T12:16:42.397Z,154250.22
2022-10-10T12:19:18.528Z,154251.53
2022-10-10T12:21:58.093Z,154269.66
2022-10-10T12:24:26.995Z,154349.91
2022-10-10T12:27:27.478Z,154415.97
2022-10-10T12:30:21.922Z,154403.03
2022-10-10T12:32:52.827Z,154409.53
2022-10-10T12:35:44.389Z,154438.00
2022-10-10T12:38:17.798Z,154470.34
2022-10-10T12:41:13.490Z,154509.19
2022-10-10T12:43:45.545Z,154513.09
2022-10-10T12:46:20.842Z,154522.13
2022-10-10T12:48:59.733Z,154535.09
2022-10-10T12:51:28.914Z,154519.59
2022-10-10T12:54:00.908Z,154505.34
2022-10-10T12:56:38.336Z,154425.06
2022-10-10T12:59:17.386Z,154418.56
2022-10-10T13:01:47.865Z,154353.81
2022-10-10T13:04:17.725Z,154320.13
2022-10-10T13:06:47.050Z,154322.72
2022-10-10T13:09:20.056Z,154346.00
2022-10-10T13:11:53.770Z,154374.50
2022-10-10T13:14:23.602Z,154374.50
2022-10-10T13:16:51.096Z,154338.25
2022-10-10T13:19:21.513Z,154365.44
2022-10-10T13:21:51.383Z,154353.81
2022-10-10T13:24:22.091Z,154382.28
2022-10-10T13:26:51.605Z,154379.69
2022-10-10T13:29:28.105Z,154390.03
2022-10-10T13:32:00.754Z,154379.69
2022-10-10T13:34:31.952Z,154405.63
2022-10-10T13:37:02.661Z,154375.78
2022-10-10T13:39:31.876Z,154379.69
2022-10-10T13:42:00.873Z,154348.59
2022-10-10T13:44:47.595Z,154369.34
2022-10-10T13:47:52.214Z,154392.63
2022-10-10T13:50:23.078Z,154418.56
2022-10-10T13:52:50.571Z,154401.72
2022-10-10T13:55:25.775Z,154391.31
2022-10-10T13:57:57.178Z,154371.88
2022-10-10T14:00:32.633Z,154365.44
2022-10-10T14:03:00.179Z,154408.22
2022-10-10T14:05:33.130Z,154379.69
2022-10-10T14:08:00.820Z,154377.09
2022-10-10T14:10:32.588Z,154377.09
2022-10-10T14:13:01.858Z,154397.88
2022-10-10T14:15:37.672Z,154408.22
2022-10-10T14:18:16.871Z,154401.72
2022-10-10T14:20:44.725Z,154383.59
2022-10-10T14:23:12.774Z,154378.38
2022-10-10T14:25:41.396Z,154361.53
2022-10-10T14:28:16.246Z,154349.91
2022-10-10T14:30:45.172Z,154335.66
2022-10-10T14:33:13.978Z,154335.66
2022-10-10T14:35:42.594Z,154291.63
2022-10-10T14:38:12.971Z,154276.16
2022-10-10T14:40:42.463Z,154276.16
2022-10-10T14:43:09.972Z,154264.47
2022-10-10T14:45:37.443Z,154246.38
2022-10-10T14:48:06.951Z,154269.66
2022-10-10T14:50:36.849Z,154247.69
2022-10-10T14:53:08.612Z,154261.91
2022-10-10T14:55:36.068Z,154246.38
2022-10-10T14:58:03.558Z,154278.69
2022-10-10T15:00:31.277Z,154245.09
2022-10-10T15:02:58.790Z,154239.88
2022-10-10T15:05:27.659Z,154226.94
2022-10-10T15:07:55.366Z,154234.75
2022-10-10T15:10:38.102Z,154211.41
2022-10-10T15:13:05.587Z,154172.59
2022-10-10T15:15:33.064Z,154157.06
2022-10-10T15:18:01.019Z,154162.28
2022-10-10T15:20:31.693Z,154159.66
2022-10-10T15:22:59.946Z,154188.13
2022-10-10T15:25:33.334Z,154208.88
2022-10-10T15:28:03.190Z,154193.34
2022-10-10T15:30:31.123Z,154179.09
2022-10-10T15:32:58.626Z,154180.41
2022-10-10T15:35:28.423Z,154195.88
2022-10-10T15:38:05.062Z,154141.53
2022-10-10T15:40:32.873Z,154144.13
2022-10-10T15:43:00.586Z,154082.03
2022-10-10T15:45:54.337Z,154074.22
2022-10-10T15:48:15.517Z,154060.06
2022-10-10T15:50:43.138Z,154017.38
2022-10-10T15:53:12.235Z,154034.13
2022-10-10T15:55:42.552Z,153994.06
2022-10-10T15:58:10.017Z,153968.19
2022-10-10T16:00:38.520Z,153929.41
2022-10-10T16:03:06.219Z,153881.59
2022-10-10T16:05:37.597Z,153943.63
2022-10-10T16:08:05.562Z,153869.97
2022-10-10T16:10:39.465Z,153859.56
2022-10-10T16:13:07.468Z,153825.97
2022-10-10T16:15:35.102Z,153813.03
2022-10-10T16:18:02.897Z,153766.50
2022-10-10T16:20:30.339Z,153783.31
2022-10-10T16:22:57.894Z,153782.00
2022-10-10T16:25:25.421Z,153789.81
2022-10-10T16:27:54.252Z,153745.84
2022-10-10T16:30:21.919Z,153754.88
2022-10-10T16:32:49.485Z,153763.91
2022-10-10T16:35:17.009Z,153740.66
2022-10-10T16:37:44.458Z,153734.22
2022-10-10T16:40:12.589Z,153754.88
2022-10-10T16:42:40.090Z,153756.16
2022-10-10T16:45:11.088Z,153740.66
2022-10-10T16:47:38.950Z,153725.16
2022-10-10T16:50:08.289Z,153660.56
2022-10-10T16:52:38.157Z,153683.81
2022-10-10T16:55:06.859Z,153692.88
2022-10-10T16:57:34.890Z,153703.19
2022-10-10T17:00:02.828Z,153663.16
2022-10-10T17:02:31.623Z,153677.38
2022-10-10T17:04:59.116Z,153627.00
2022-10-10T17:07:26.612Z,153577.88
2022-10-10T17:09:54.248Z,153570.16
2022-10-10T17:12:21.711Z,153583.06
2022-10-10T17:14:50.042Z,153608.91
2022-10-10T17:17:19.262Z,153572.75
2022-10-10T17:19:49.411Z,153521.00
2022-10-10T17:22:17.356Z,153561.03
2022-10-10T17:24:44.876Z,153528.78
2022-10-10T17:27:15.473Z,153553.31
2022-10-10T17:29:42.989Z,153474.53
2022-10-10T17:32:10.454Z,153455.16
2022-10-10T17:34:38.091Z,153505.56
2022-10-10T17:37:06.908Z,153450.03
2022-10-10T17:39:34.465Z,153435.81
2022-10-10T17:42:02.051Z,153410.00
2022-10-10T17:44:29.554Z,153389.31
2022-10-10T17:46:57.411Z,153385.44
2022-10-10T17:49:24.937Z,153388.03
2022-10-10T17:51:52.460Z,153366.09
2022-10-10T17:54:21.828Z,153292.53
2022-10-10T17:56:49.304Z,153234.44
2022-10-10T17:59:16.816Z,153248.63
2022-10-10T18:01:44.303Z,153213.78
2022-10-10T18:04:15.197Z,153157.00
2022-10-10T18:06:42.697Z,153209.94
2022-10-10T18:09:10.542Z,153131.19
2022-10-10T18:11:39.527Z,153115.72
2022-10-10T18:14:07.024Z,153120.91
2022-10-10T18:16:35.398Z,153077.03
2022-10-10T18:19:04.555Z,153033.22
2022-10-10T18:21:32.482Z,153004.84
2022-10-10T18:24:00.885Z,152998.38
2022-10-10T18:26:30.293Z,153048.66
2022-10-10T18:28:59.566Z,153034.53
2022-10-10T18:31:29.732Z,152991.97
2022-10-10T18:33:57.809Z,153002.25
2022-10-10T18:36:27.864Z,153015.16
2022-10-10T18:38:58.306Z,152959.72
2022-10-10T18:41:27.885Z,152919.75
2022-10-10T18:43:57.374Z,152953.28
2022-10-10T18:46:26.198Z,152954.53
2022-10-10T18:48:54.449Z,152899.16
2022-10-10T18:51:24.146Z,152862.97
2022-10-10T18:53:53.359Z,152870.75
2022-10-10T18:56:24.356Z,152932.63
2022-10-10T18:58:54.838Z,152883.63
2022-10-10T19:01:25.124Z,152932.63
2022-10-10T19:03:55.144Z,152972.59
2022-10-10T19:06:24.242Z,152968.72
2022-10-10T19:08:52.678Z,152917.16
2022-10-10T19:11:22.202Z,152930.06
2022-10-10T19:13:50.081Z,152904.28
2022-10-10T19:16:18.272Z,152926.22
2022-10-10T19:18:46.175Z,152932.63
2022-10-10T19:21:16.054Z,152906.88
2022-10-10T19:23:47.718Z,152853.97
2022-10-10T19:26:16.947Z,152853.97
2022-10-10T19:28:44.814Z,152834.63
2022-10-10T19:31:14.966Z,152864.28
2022-10-10T19:33:43.464Z,152798.56
2022-10-10T19:36:12.709Z,150853.69
2022-10-10T19:38:42.936Z,150097.63
2022-10-10T19:41:13.539Z,151541.69
2022-10-10T19:43:41.354Z,150828.84
2022-10-10T19:46:16.328Z,144433.03
2022-10-10T19:48:44.156Z,140934.63
2022-10-10T19:51:13.999Z,137469.16
2022-10-10T19:53:43.704Z,135439.09
2022-10-10T19:56:13.276Z,139574.34
2022-10-10T19:58:41.808Z,138495.81
2022-10-10T20:01:10.324Z,137819.47
2022-10-10T20:03:37.888Z,135730.94
2022-10-10T20:06:07.183Z,134034.47
2022-10-10T20:08:35.767Z,136402.38
2022-10-10T20:11:05.033Z,134687.84
2022-10-10T20:13:34.571Z,135045.72
2022-10-10T20:16:05.210Z,136409.31
2022-10-10T20:18:34.567Z,135697.75
2022-10-10T20:21:07.490Z,134314.22
2022-10-10T20:23:35.083Z,133621.53
2022-10-10T20:26:09.821Z,130465.69
2022-10-10T20:28:37.659Z,128046.91
2022-10-10T20:31:05.489Z,125647.97
2022-10-10T20:33:34.307Z,126689.50
2022-10-10T20:36:03.179Z,127032.84
2022-10-10T20:38:30.994Z,127708.88
2022-10-10T20:40:58.488Z,128426.03
2022-10-10T20:43:30.664Z,127399.84
2022-10-10T20:45:58.151Z,127358.00
2022-10-10T20:48:25.620Z,124633.09
2022-10-10T20:50:53.082Z,125315.31
2022-10-10T20:53:20.519Z,125638.44
2022-10-10T20:55:54.752Z,125322.69
2022-10-10T20:58:22.238Z,125304.75
2022-10-10T21:00:51.059Z,125632.06
2022-10-10T21:03:18.544Z,123902.94
2022-10-10T21:05:46.006Z,123191.00
2022-10-10T21:08:13.607Z,121123.03
2022-10-10T21:10:42.891Z,117773.03
2022-10-10T21:13:10.559Z,118796.00
2022-10-10T21:15:38.007Z,120490.50
2022-10-10T21:18:07.027Z,120468.16
2022-10-10T21:20:34.658Z,119744.47
2022-10-10T21:23:05.307Z,118715.97
2022-10-10T21:25:32.784Z,115222.78
2022-10-10T21:28:00.388Z,111465.56
2022-10-10T21:30:29.756Z,109393.91
2022-10-10T21:32:57.282Z,107372.03
2022-10-10T21:35:26.101Z,106332.81
2022-10-10T21:37:53.564Z,104657.94
2022-10-10T21:40:21.031Z,105328.84
2022-10-10T21:42:48.526Z,103344.81
2022-10-10T21:45:16.053Z,106047.06
2022-10-10T21:47:43.484Z,108083.97
2022-10-10T21:50:11.104Z,109778.88
2022-10-10T21:52:39.916Z,110780.41
2022-10-10T21:55:07.896Z,108070.28
2022-10-10T21:57:36.018Z,107357.53
2022-10-10T22:00:04.587Z,108706.47
2022-10-10T22:02:32.033Z,107663.44
2022-10-10T22:05:02.255Z,105936.22
2022-10-10T22:07:29.702Z,102895.06
2022-10-10T22:09:58.628Z,103182.84
2022-10-10T22:12:26.192Z,99822.59
2022-10-10T22:14:53.640Z,100137.00
2022-10-10T22:17:24.490Z,99816.72
2022-10-10T22:19:51.943Z,100785.81
2022-10-10T22:22:19.755Z,98771.78
2022-10-10T22:24:47.217Z,98384.09
2022-10-10T22:27:16.237Z,98355.06
2022-10-10T22:29:44.209Z,95643.91
2022-10-10T22:32:11.653Z,94286.81
2022-10-10T22:34:39.262Z,93292.69
2022-10-10T22:37:06.726Z,94278.88
2022-10-10T22:39:34.185Z,94930.47
2022-10-10T22:42:01.671Z,93587.50
2022-10-10T22:44:30.454Z,93916.91
2022-10-10T22:46:58.350Z,92556.84
2022-10-10T22:49:26.142Z,92211.81
2022-10-10T22:51:53.628Z,92194.69
2022-10-10T22:54:21.135Z,90169.13
2022-10-10T22:56:48.992Z,89130.94
2022-10-10T22:59:16.430Z,87099.38
2022-10-10T23:01:45.479Z,86772.81
2022-10-10T23:04:13.408Z,87440.59
2022-10-10T23:06:41.580Z,86444.72
2022-10-10T23:09:09.433Z,88454.13
2022-10-10T23:11:37.215Z,87436.91
2022-10-10T23:14:05.212Z,85755.13
2022-10-10T23:16:33.060Z,85742.06
2022-10-10T23:19:01.858Z,85402.44
2022-10-10T23:21:29.325Z,85070.06
2022-10-10T23:23:56.777Z,85396.69
2022-10-10T23:26:24.273Z,84727.66
2022-10-10T23:28:51.981Z,85055.69
2022-10-10T23:31:19.508Z,85381.53
2022-10-10T23:33:46.967Z,86055.53
2022-10-10T23:36:16.122Z,85727.59
2022-10-10T23:38:44.050Z,86716.41
2022-10-10T23:41:12.379Z,86045.38
2022-10-10T23:43:39.870Z,83696.47
2022-10-10T23:46:08.090Z,85710.22
2022-10-10T23:48:36.773Z,86377.59
2022-10-10T23:51:05.073Z,86695.16
2022-10-10T23:53:34.519Z,85350.53
2022-10-10T23:56:02.274Z,86674.69
2022-10-10T23:58:30.087Z,85330.38
